createdAt,value
2023-02-13T00:00:30.878Z,101317.38
2023-02-13T00:02:57.838Z,101330.97
2023-02-13T00:05:24.885Z,101330.31
2023-02-13T00:07:51.893Z,101331.91
2023-02-13T00:10:18.819Z,101327.63
2023-02-13T00:12:45.756Z,101323.81
2023-02-13T00:15:12.608Z,101319.25
2023-02-13T00:17:39.439Z,101325.50
2023-02-13T00:20:07.164Z,101338.34
2023-02-13T00:22:38.372Z,101338.34
2023-02-13T00:25:06.418Z,101330.34
2023-02-13T00:27:33.647Z,101319.50
2023-02-13T00:30:00.616Z,101325.72
2023-02-13T00:32:27.434Z,101325.44
2023-02-13T00:34:55.826Z,101330.66
2023-02-13T00:37:23.287Z,101322.28
2023-02-13T00:39:52.288Z,101324.53
2023-02-13T00:42:20.590Z,101328.91
2023-02-13T00:44:47.479Z,101337.66
2023-02-13T00:47:14.959Z,101343.69
2023-02-13T00:49:42.018Z,101326.09
2023-02-13T00:52:08.916Z,101346.84
2023-02-13T00:54:35.700Z,101327.59
2023-02-13T00:57:03.102Z,101334.19
2023-02-13T00:59:30.193Z,101347.59
2023-02-13T01:01:57.109Z,101339.13
2023-02-13T01:04:24.060Z,101340.06
2023-02-13T01:06:51.118Z,101345.66
2023-02-13T01:09:18.036Z,101349.91
2023-02-13T01:11:44.927Z,101337.50
2023-02-13T01:14:11.875Z,101338.34
2023-02-13T01:16:39.924Z,101354.19
2023-02-13T01:19:06.719Z,101343.94
2023-02-13T01:21:33.526Z,101356.03
2023-02-13T01:24:04.553Z,101338.81
2023-02-13T01:26:31.277Z,101341.16
2023-02-13T01:28:58.214Z,101339.47
2023-02-13T01:31:26.337Z,101340.13
2023-02-13T01:33:56.501Z,101336.53
2023-02-13T01:36:23.868Z,101339.47
2023-02-13T01:38:55.061Z,101349.53
2023-02-13T01:41:22.762Z,101333.31
2023-02-13T01:43:55.420Z,101325.50
2023-02-13T01:46:28.076Z,101330.78
2023-02-13T01:48:59.041Z,101344.38
2023-02-13T01:51:32.067Z,101340.66
2023-02-13T01:54:04.298Z,101329.56
2023-02-13T01:56:31.781Z,101318.25
2023-02-13T01:59:02.830Z,101304.88
2023-02-13T02:01:31.513Z,101328.44
2023-02-13T02:04:09.477Z,101319.44
2023-02-13T02:06:45.016Z,101319.16
2023-02-13T02:09:20.808Z,101322.78
2023-02-13T02:12:00.829Z,101324.75
2023-02-13T02:14:28.518Z,101328.88
2023-02-13T02:16:57.613Z,101330.84
2023-02-13T02:19:33.914Z,101336.78
2023-02-13T02:22:15.786Z,101350.31
2023-02-13T02:25:04.462Z,101337.56
2023-02-13T02:27:35.034Z,101330.84
2023-02-13T02:30:07.919Z,101334.13
2023-02-13T02:32:47.623Z,101319.63
2023-02-13T02:35:51.032Z,101347.28
2023-02-13T02:38:27.296Z,101335.47
2023-02-13T02:41:05.177Z,101347.94
2023-02-13T02:43:59.226Z,101344.69
2023-02-13T02:46:39.824Z,101343.47
2023-02-13T02:49:38.487Z,101331.56
2023-02-13T02:52:47.334Z,101324.88
2023-02-13T02:55:18.217Z,101334.66
2023-02-13T02:58:36.062Z,101329.06
2023-02-13T03:01:26.258Z,101331.59
2023-02-13T03:04:16.228Z,101338.75
2023-02-13T03:06:57.854Z,101341.00
2023-02-13T03:09:54.300Z,101339.50
2023-02-13T03:12:42.219Z,101343.03
2023-02-13T03:15:09.995Z,101330.91
2023-02-13T03:17:56.216Z,101332.22
2023-02-13T03:21:03.840Z,101334.28
2023-02-13T03:24:11.899Z,101336.78
2023-02-13T03:27:08.480Z,101326.91
2023-02-13T03:30:07.412Z,101338.06
2023-02-13T03:33:12.464Z,101322.44
2023-02-13T03:36:30.418Z,101306.31
2023-02-13T03:39:48.752Z,101326.78
2023-02-13T03:42:35.648Z,101306.41
2023-02-13T03:45:28.232Z,101322.50
2023-02-13T03:47:58.063Z,101326.22
2023-02-13T03:50:27.558Z,101318.03
2023-02-13T03:53:11.727Z,101323.25
2023-02-13T03:56:03.996Z,101313.78
2023-02-13T03:58:53.689Z,101340.13
2023-02-13T04:01:26.514Z,101330.91
2023-02-13T04:03:56.341Z,101336.25
2023-02-13T04:06:31.660Z,101340.06
2023-02-13T04:08:59.098Z,101331.03
2023-02-13T04:11:35.304Z,101341.94
2023-02-13T04:14:13.927Z,101288.97
2023-02-13T04:16:45.777Z,101319.53
2023-02-13T04:19:13.362Z,101310.13
2023-02-13T04:21:41.234Z,101334.56
2023-02-13T04:24:08.870Z,101327.13
2023-02-13T04:26:39.719Z,101330.41
2023-02-13T04:29:06.637Z,101322.69
2023-02-13T04:31:33.750Z,101319.09
2023-02-13T04:34:01.007Z,101334.06
2023-02-13T04:36:28.158Z,101325.22
2023-02-13T04:38:55.062Z,101326.34
2023-02-13T04:41:22.011Z,101322.16
2023-02-13T04:43:49.228Z,101296.09
2023-02-13T04:46:16.131Z,101325.78
2023-02-13T04:48:42.919Z,101330.19
2023-02-13T04:51:09.695Z,101334.94
2023-02-13T04:53:36.699Z,101301.47
2023-02-13T04:56:03.790Z,101311.53
2023-02-13T04:58:30.897Z,101316.28
2023-02-13T05:00:58.000Z,101329.56
2023-02-13T05:03:25.102Z,101297.25
2023-02-13T05:05:51.920Z,101332.34
2023-02-13T05:08:18.862Z,101337.16
2023-02-13T05:10:45.643Z,101335.09
2023-02-13T05:13:12.935Z,101337.50
2023-02-13T05:15:40.041Z,101347.50
2023-02-13T05:18:07.051Z,101352.28
2023-02-13T05:20:34.108Z,101358.53
2023-02-13T05:23:19.620Z,101348.75
2023-02-13T05:25:46.763Z,101356.91
2023-02-13T05:28:32.799Z,101334.56
2023-02-13T05:31:00.269Z,101358.44
2023-02-13T05:33:27.741Z,101357.25
2023-02-13T05:35:54.720Z,101364.63
2023-02-13T05:38:21.749Z,101362.94
2023-02-13T05:40:49.015Z,101369.19
2023-02-13T05:43:16.045Z,101356.91
2023-02-13T05:45:42.932Z,101348.03
2023-02-13T05:48:09.692Z,101370.03
2023-02-13T05:50:36.758Z,101370.84
2023-02-13T05:53:03.874Z,101375.06
2023-02-13T05:55:31.166Z,101372.84
2023-02-13T05:57:59.238Z,101386.13
2023-02-13T06:00:26.191Z,101384.75
2023-02-13T06:02:53.235Z,101385.38
2023-02-13T06:05:20.240Z,101392.75
2023-02-13T06:07:47.174Z,101389.50
2023-02-13T06:10:14.169Z,101397.66
2023-02-13T06:12:42.793Z,101389.16
2023-02-13T06:15:16.469Z,101387.31
2023-02-13T06:17:43.490Z,101379.03
2023-02-13T06:20:10.656Z,101387.84
2023-02-13T06:22:37.623Z,101387.22
2023-02-13T06:25:04.913Z,101362.44
2023-02-13T06:27:31.838Z,101374.75
2023-02-13T06:29:58.669Z,101383.25
2023-02-13T06:32:25.526Z,101381.59
2023-02-13T06:34:52.452Z,101380.72
2023-02-13T06:37:19.315Z,101387.69
2023-02-13T06:39:46.287Z,101386.56
2023-02-13T06:42:13.312Z,101369.16
2023-02-13T06:44:40.293Z,101387.75
2023-02-13T06:47:07.283Z,101380.19
2023-02-13T06:49:34.304Z,101378.44
2023-02-13T06:52:01.210Z,101379.34
2023-02-13T06:54:44.784Z,101366.28
2023-02-13T06:57:13.733Z,101352.66
2023-02-13T06:59:40.655Z,101380.72
2023-02-13T07:02:09.191Z,101381.63
2023-02-13T07:04:36.247Z,101368.03
2023-02-13T07:07:03.289Z,101366.44
2023-02-13T07:09:31.772Z,101372.78
2023-02-13T07:11:58.970Z,101367.25
2023-02-13T07:14:25.949Z,101365.88
2023-02-13T07:16:52.754Z,101361.81
2023-02-13T07:19:19.511Z,101374.84
2023-02-13T07:21:46.644Z,101381.81
2023-02-13T07:24:13.807Z,101370.22
2023-02-13T07:26:40.768Z,101355.69
2023-02-13T07:29:12.140Z,101364.53
2023-02-13T07:31:40.147Z,101361.00
2023-02-13T07:34:07.925Z,101366.25
2023-02-13T07:36:35.185Z,101362.50
2023-02-13T07:39:02.284Z,101365.44
2023-02-13T07:41:29.368Z,101364.66
2023-02-13T07:43:56.516Z,101356.31
2023-02-13T07:46:23.402Z,101345.47
2023-02-13T07:48:52.580Z,101356.31
2023-02-13T07:51:19.902Z,101347.09
2023-02-13T07:53:46.784Z,101343.72
2023-02-13T07:56:14.946Z,101350.38
2023-02-13T07:58:42.006Z,101338.88
2023-02-13T08:01:15.058Z,101344.69
2023-02-13T08:03:42.300Z,101344.84
2023-02-13T08:06:14.148Z,101347.28
2023-02-13T08:08:41.410Z,101345.34
2023-02-13T08:11:51.922Z,101344.66
2023-02-13T08:14:18.751Z,101338.31
2023-02-13T08:16:45.750Z,101326.75
2023-02-13T08:19:12.594Z,101330.47
2023-02-13T08:21:40.770Z,101333.56
2023-02-13T08:24:08.188Z,101324.31
2023-02-13T08:26:35.183Z,101327.13
2023-02-13T08:29:02.434Z,101319.75
2023-02-13T08:31:29.376Z,101323.97
2023-02-13T08:33:57.563Z,101321.19
2023-02-13T08:36:25.350Z,101322.19
2023-02-13T08:38:52.668Z,101318.66
2023-02-13T08:41:21.179Z,101313.97
2023-02-13T08:43:52.463Z,101320.16
2023-02-13T08:46:19.434Z,101322.34
2023-02-13T08:48:46.503Z,101311.16
2023-02-13T08:51:14.713Z,101308.94
2023-02-13T08:53:42.639Z,101310.91
2023-02-13T08:56:10.063Z,101308.25
2023-02-13T08:58:37.088Z,101293.03
2023-02-13T09:01:08.625Z,101308.16
2023-02-13T09:03:36.732Z,101294.31
2023-02-13T09:06:03.832Z,101293.28
2023-02-13T09:08:31.258Z,101300.81
2023-02-13T09:11:02.177Z,101277.97
2023-02-13T09:13:30.472Z,101300.31
2023-02-13T09:16:02.410Z,101290.50
2023-02-13T09:18:29.390Z,101290.16
2023-02-13T09:21:23.754Z,101283.94
2023-02-13T09:23:51.680Z,101290.53
2023-02-13T09:26:20.696Z,101283.19
2023-02-13T09:28:47.777Z,101282.53
2023-02-13T09:31:17.902Z,101272.91
2023-02-13T09:33:46.545Z,101273.59
2023-02-13T09:36:16.276Z,101268.63
2023-02-13T09:38:44.336Z,101273.00
2023-02-13T09:41:33.972Z,101271.09
2023-02-13T09:44:34.332Z,101254.22
2023-02-13T09:47:04.303Z,101263.50
2023-02-13T09:49:35.430Z,101259.94
2023-02-13T09:52:02.565Z,101246.84
2023-02-13T09:54:32.242Z,101253.38
2023-02-13T09:57:05.432Z,101248.38
2023-02-13T09:59:50.952Z,101241.81
2023-02-13T10:02:46.116Z,101237.28
2023-02-13T10:05:37.971Z,101237.75
2023-02-13T10:08:21.492Z,101233.97
2023-02-13T10:10:54.780Z,101238.22
2023-02-13T10:13:49.251Z,101216.09
2023-02-13T10:16:51.021Z,101223.16
2023-02-13T10:19:38.002Z,101203.91
2023-02-13T10:22:12.238Z,101206.59
2023-02-13T10:24:52.643Z,101192.88
2023-02-13T10:27:25.139Z,101193.22
2023-02-13T10:30:07.071Z,101186.22
2023-02-13T10:32:43.857Z,101176.41
2023-02-13T10:35:38.873Z,101185.75
2023-02-13T10:38:16.299Z,101172.25
2023-02-13T10:40:53.896Z,101171.28
2023-02-13T10:43:27.711Z,101163.72
2023-02-13T10:46:03.780Z,101181.03
2023-02-13T10:48:59.370Z,101172.63
2023-02-13T10:52:05.079Z,101165.50
2023-02-13T10:55:01.526Z,101169.66
2023-02-13T10:57:47.560Z,101162.72
2023-02-13T11:00:20.783Z,101155.31
2023-02-13T11:02:48.441Z,101146.09
2023-02-13T11:05:22.621Z,101149.59
2023-02-13T11:07:49.945Z,101148.69
2023-02-13T11:10:22.850Z,101149.03
2023-02-13T11:12:51.243Z,101143.47
2023-02-13T11:15:33.016Z,101135.94
2023-02-13T11:18:13.073Z,101132.91
2023-02-13T11:20:48.156Z,101135.72
2023-02-13T11:23:30.680Z,101128.50
2023-02-13T11:26:22.270Z,101115.00
2023-02-13T11:28:54.897Z,101127.53
2023-02-13T11:31:24.051Z,101102.16
2023-02-13T11:33:51.827Z,101108.09
2023-02-13T11:36:35.264Z,101096.94
2023-02-13T11:39:13.338Z,101103.84
2023-02-13T11:41:43.924Z,101092.03
2023-02-13T11:44:31.388Z,101092.72
2023-02-13T11:47:00.881Z,101085.78
2023-02-13T11:49:34.414Z,101087.91
2023-02-13T11:52:07.704Z,101077.78
2023-02-13T11:54:44.242Z,101080.66
2023-02-13T11:57:29.968Z,101084.16
2023-02-13T11:59:57.731Z,101076.84
2023-02-13T12:02:29.400Z,101079.47
2023-02-13T12:05:14.949Z,101083.41
2023-02-13T12:07:42.867Z,101075.06
2023-02-13T12:10:15.641Z,101072.38
2023-02-13T12:13:06.328Z,101048.72
2023-02-13T12:15:35.453Z,101053.78
2023-02-13T12:18:35.070Z,101060.09
2023-02-13T12:21:31.976Z,101060.66
2023-02-13T12:24:09.969Z,101013.19
2023-02-13T12:26:48.426Z,101061.09
2023-02-13T12:29:34.343Z,101040.06
2023-02-13T12:32:15.623Z,101070.34
2023-02-13T12:35:04.596Z,101056.84
2023-02-13T12:37:55.216Z,101056.13
2023-02-13T12:40:46.886Z,101051.59
2023-02-13T12:43:25.840Z,101054.28
2023-02-13T12:46:04.810Z,101053.47
2023-02-13T12:48:42.308Z,101062.31
2023-02-13T12:51:21.376Z,101060.47
2023-02-13T12:54:07.106Z,101055.38
2023-02-13T12:56:34.123Z,101055.19
2023-02-13T12:59:13.787Z,101046.00
2023-02-13T13:01:49.503Z,101053.06
2023-02-13T13:04:51.744Z,101055.13
2023-02-13T13:07:24.659Z,101046.50
2023-02-13T13:10:18.889Z,101046.06
2023-02-13T13:13:14.876Z,101051.81
2023-02-13T13:15:53.886Z,101050.53
2023-02-13T13:18:42.339Z,101044.84
2023-02-13T13:21:33.340Z,101056.97
2023-02-13T13:24:29.986Z,101047.66
2023-02-13T13:26:58.091Z,101045.44
2023-02-13T13:29:31.821Z,101040.41
2023-02-13T13:32:05.891Z,101037.72
2023-02-13T13:34:35.760Z,101044.34
2023-02-13T13:37:18.876Z,101037.78
2023-02-13T13:39:52.578Z,101036.69
2023-02-13T13:42:31.184Z,101035.09
2023-02-13T13:45:18.258Z,101036.31
2023-02-13T13:48:19.395Z,101033.69
2023-02-13T13:50:47.443Z,101016.75
2023-02-13T13:53:20.372Z,101016.25
2023-02-13T13:55:47.548Z,101016.56
2023-02-13T13:58:35.680Z,101012.78
2023-02-13T14:01:14.900Z,101021.72
2023-02-13T14:03:46.086Z,101009.53
2023-02-13T14:06:40.188Z,101006.88
2023-02-13T14:09:27.999Z,101000.81
2023-02-13T14:11:56.683Z,101001.00
2023-02-13T14:14:30.660Z,100994.28
2023-02-13T14:17:04.719Z,100983.31
2023-02-13T14:19:42.998Z,100999.28
2023-02-13T14:22:18.837Z,100992.09
2023-02-13T14:24:57.099Z,100980.75
2023-02-13T14:27:42.188Z,100987.06
2023-02-13T14:30:30.902Z,100978.00
2023-02-13T14:33:02.770Z,100968.91
2023-02-13T14:35:37.555Z,100976.22
2023-02-13T14:38:21.853Z,100959.31
2023-02-13T14:40:50.486Z,100969.84
2023-02-13T14:43:27.845Z,100964.63
2023-02-13T14:46:15.303Z,100942.00
2023-02-13T14:49:30.060Z,100973.00
2023-02-13T14:52:01.744Z,100963.56
2023-02-13T14:54:49.441Z,100965.22
2023-02-13T14:57:23.323Z,100963.97
2023-02-13T14:59:56.469Z,100959.50
2023-02-13T15:02:25.618Z,100968.31
2023-02-13T15:04:57.449Z,100960.50
2023-02-13T15:07:29.665Z,100966.16
2023-02-13T15:10:02.136Z,100964.44
2023-02-13T15:12:31.980Z,100966.75
2023-02-13T15:15:01.916Z,100961.69
2023-02-13T15:17:40.275Z,100959.38
2023-02-13T15:20:18.239Z,100955.72
2023-02-13T15:22:47.153Z,100959.84
2023-02-13T15:25:29.290Z,100964.97
2023-02-13T15:27:58.736Z,100957.31
2023-02-13T15:30:36.792Z,100962.69
2023-02-13T15:33:17.859Z,100971.66
2023-02-13T15:35:45.137Z,100964.78
2023-02-13T15:38:25.232Z,100973.94
2023-02-13T15:40:55.840Z,100954.53
2023-02-13T15:43:30.755Z,100973.63
2023-02-13T15:46:03.145Z,100967.84
2023-02-13T15:48:31.947Z,100981.41
2023-02-13T15:50:59.385Z,100960.81
2023-02-13T15:53:26.583Z,100974.44
2023-02-13T15:56:00.375Z,100975.63
2023-02-13T15:58:34.140Z,100976.00
2023-02-13T16:01:05.482Z,100979.31
2023-02-13T16:03:33.454Z,100983.09
2023-02-13T16:06:00.925Z,100973.63
2023-02-13T16:08:29.680Z,100978.47
2023-02-13T16:11:20.848Z,100978.56
2023-02-13T16:14:00.324Z,100982.25
2023-02-13T16:16:29.337Z,100967.88
2023-02-13T16:18:56.757Z,100970.94
2023-02-13T16:21:31.068Z,100985.63
2023-02-13T16:24:03.627Z,100971.13
2023-02-13T16:26:31.539Z,100984.22
2023-02-13T16:28:58.490Z,100990.69
2023-02-13T16:31:25.763Z,100962.47
2023-02-13T16:33:52.676Z,100978.34
2023-02-13T16:36:28.424Z,100973.50
2023-02-13T16:39:01.103Z,100986.06
2023-02-13T16:41:33.195Z,100988.03
2023-02-13T16:44:04.780Z,100976.25
2023-02-13T16:46:35.822Z,100984.03
2023-02-13T16:49:15.252Z,100971.41
2023-02-13T16:51:56.536Z,100986.88
2023-02-13T16:54:29.856Z,100980.31
2023-02-13T16:57:07.264Z,100975.16
2023-02-13T17:00:25.587Z,100971.25
2023-02-13T17:02:59.453Z,100967.78
2023-02-13T17:05:30.221Z,100973.50
2023-02-13T17:07:59.539Z,100975.88
2023-02-13T17:10:37.933Z,100967.19
2023-02-13T17:13:13.732Z,100977.00
2023-02-13T17:15:46.253Z,100977.09
2023-02-13T17:18:13.814Z,100961.97
2023-02-13T17:20:43.852Z,100962.00
2023-02-13T17:23:24.097Z,100967.44
2023-02-13T17:25:55.098Z,100956.25
2023-02-13T17:28:29.166Z,100946.97
2023-02-13T17:30:58.725Z,100967.38
2023-02-13T17:33:29.206Z,100959.06
2023-02-13T17:35:56.567Z,100954.69
2023-02-13T17:38:23.629Z,100950.59
2023-02-13T17:41:05.261Z,100953.53
2023-02-13T17:43:38.828Z,100948.81
2023-02-13T17:46:06.422Z,100954.66
2023-02-13T17:48:37.282Z,100951.34
2023-02-13T17:51:10.452Z,100955.53
2023-02-13T17:53:38.133Z,100936.75
2023-02-13T17:58:47.463Z,100950.59
2023-02-13T18:01:14.473Z,100947.28
2023-02-13T18:03:43.766Z,100942.31
2023-02-13T18:06:13.068Z,100940.84
2023-02-13T18:08:39.987Z,100939.59
2023-02-13T18:11:11.610Z,100927.50
2023-02-13T18:13:38.532Z,100937.31
2023-02-13T18:16:09.531Z,100932.31
2023-02-13T18:18:36.468Z,100923.19
2023-02-13T18:21:03.330Z,100942.78
2023-02-13T18:23:30.273Z,100931.97
2023-02-13T18:26:10.582Z,100942.59
2023-02-13T18:28:38.035Z,100932.41
2023-02-13T18:31:05.092Z,100922.41
2023-02-13T18:33:32.439Z,100928.25
2023-02-13T18:36:01.787Z,100919.97
2023-02-13T18:38:29.406Z,100930.38
2023-02-13T18:41:23.338Z,100944.97
2023-02-13T18:43:50.260Z,100945.81
2023-02-13T18:46:17.343Z,100933.75
2023-02-13T18:48:44.422Z,100912.53
2023-02-13T18:51:38.166Z,100928.13
2023-02-13T18:54:05.219Z,100904.63
2023-02-13T18:56:32.457Z,100932.91
2023-02-13T18:58:59.900Z,100935.84
2023-02-13T19:01:26.737Z,100927.13
2023-02-13T19:03:54.695Z,100935.47
2023-02-13T19:06:24.471Z,100928.78
2023-02-13T19:08:51.585Z,100926.72
2023-02-13T19:11:20.633Z,100927.97
2023-02-13T19:13:47.796Z,100930.25
2023-02-13T19:16:19.416Z,100919.44
2023-02-13T19:18:56.372Z,100923.38
2023-02-13T19:21:26.578Z,100928.41
2023-02-13T19:23:53.430Z,100908.19
2023-02-13T19:26:28.286Z,100922.16
2023-02-13T19:28:56.827Z,100924.66
2023-02-13T19:31:27.150Z,100915.47
2023-02-13T19:33:54.523Z,100923.41
2023-02-13T19:36:24.031Z,100921.72
2023-02-13T19:38:58.286Z,100912.16
2023-02-13T19:41:25.702Z,100914.22
2023-02-13T19:43:55.987Z,100898.41
2023-02-13T19:46:26.251Z,100896.13
2023-02-13T19:48:53.477Z,100905.50
2023-02-13T19:51:24.356Z,100906.72
2023-02-13T19:53:59.489Z,100900.91
2023-02-13T19:56:28.122Z,100885.09
2023-02-13T19:59:02.973Z,100893.41
2023-02-13T20:01:30.766Z,100880.72
2023-02-13T20:03:57.705Z,100893.00
2023-02-13T20:06:28.341Z,100891.16
2023-02-13T20:08:58.760Z,100889.28
2023-02-13T20:11:26.221Z,100880.09
2023-02-13T20:13:57.551Z,100890.94
2023-02-13T20:16:24.891Z,100852.41
2023-02-13T20:18:52.068Z,100861.97
2023-02-13T20:21:20.086Z,100864.69
2023-02-13T20:23:51.746Z,100868.44
2023-02-13T20:26:34.836Z,100861.59
2023-02-13T20:29:02.782Z,100853.03
2023-02-13T20:31:31.440Z,100866.78
2023-02-13T20:33:58.886Z,100869.28
2023-02-13T20:36:29.096Z,100846.81
2023-02-13T20:38:59.637Z,100855.53
2023-02-13T20:41:31.474Z,100855.34
2023-02-13T20:44:00.417Z,100838.25
2023-02-13T20:46:30.944Z,100854.69
2023-02-13T20:48:58.184Z,100838.88
2023-02-13T20:51:25.252Z,100841.38
2023-02-13T20:53:52.179Z,100842.63
2023-02-13T20:56:21.516Z,100852.41
2023-02-13T20:58:49.895Z,100830.56
2023-02-13T21:01:20.546Z,100830.16
2023-02-13T21:03:53.569Z,100821.41
2023-02-13T21:06:34.602Z,100821.41
2023-02-13T21:09:03.037Z,100816.22
2023-02-13T21:11:31.243Z,100819.97
2023-02-13T21:13:58.653Z,100806.00
2023-02-13T21:16:28.775Z,100809.34
2023-02-13T21:18:58.761Z,100806.44
2023-02-13T21:21:28.767Z,100809.13
2023-02-13T21:23:57.286Z,100814.94
2023-02-13T21:26:24.868Z,100805.16
2023-02-13T21:28:52.328Z,100805.59
2023-02-13T21:31:23.907Z,100804.53
2023-02-13T21:33:51.984Z,100784.16
2023-02-13T21:36:19.520Z,100784.78
2023-02-13T21:38:46.335Z,100775.63
2023-02-13T21:41:16.154Z,100767.72
2023-02-13T21:43:47.086Z,100779.56
2023-02-13T21:46:21.318Z,100751.91
2023-02-13T21:48:53.111Z,100767.91
2023-02-13T21:51:20.741Z,100773.53
2023-02-13T21:53:48.660Z,100775.59
2023-02-13T21:56:21.416Z,100773.09
2023-02-13T21:58:49.105Z,100774.38
2023-02-13T22:01:25.975Z,100769.34
2023-02-13T22:04:00.150Z,100782.25
2023-02-13T22:06:29.216Z,100748.59
2023-02-13T22:09:04.441Z,100782.91
2023-02-13T22:11:31.552Z,100781.44
2023-02-13T22:14:25.495Z,100770.63
2023-02-13T22:16:55.009Z,100748.59
2023-02-13T22:19:21.908Z,100786.84
2023-02-13T22:21:48.993Z,100788.09
2023-02-13T22:24:16.156Z,100782.47
2023-02-13T22:26:45.514Z,100786.84
2023-02-13T22:29:14.707Z,100790.38
2023-02-13T22:31:42.134Z,100778.53
2023-02-13T22:34:12.349Z,100786.63
2023-02-13T22:36:39.509Z,100779.56
2023-02-13T22:39:08.264Z,100791.00
2023-02-13T22:41:35.136Z,100802.63
2023-02-13T22:44:01.945Z,100803.47
2023-02-13T22:46:33.304Z,100808.66
2023-02-13T22:49:00.893Z,100785.81
2023-02-13T22:51:31.689Z,100791.41
2023-02-13T22:54:00.149Z,100792.03
2023-02-13T22:56:29.304Z,100758.53
2023-02-13T22:58:56.968Z,100786.00
2023-02-13T23:01:25.556Z,100785.59
2023-02-13T23:03:52.673Z,100792.84
2023-02-13T23:06:19.857Z,100803.06
2023-02-13T23:08:49.181Z,100792.03
2023-02-13T23:11:35.448Z,100794.31
2023-02-13T23:14:02.811Z,100790.38
2023-02-13T23:16:52.797Z,100807.63
2023-02-13T23:19:21.050Z,100788.25
2023-02-13T23:21:48.013Z,100801.38
2023-02-13T23:24:15.265Z,100799.28
2023-02-13T23:26:42.200Z,100795.13
2023-02-13T23:29:09.564Z,100788.03
2023-02-13T23:31:36.594Z,100798.84
2023-02-13T23:34:03.693Z,100781.59
2023-02-13T23:36:30.542Z,100793.88
2023-02-13T23:38:57.394Z,100785.56
2023-02-13T23:41:24.324Z,100795.09
2023-02-13T23:43:51.248Z,100796.56
2023-02-13T23:46:18.211Z,100798.44
2023-02-13T23:48:46.148Z,100801.78
2023-02-13T23:51:13.725Z,100799.69
2023-02-13T23:53:40.659Z,100808.63
2023-02-13T23:56:07.877Z,100805.50
2023-02-13T23:58:34.983Z,100804.69
